createdAt,value
2019-04-20T00:01:34.420Z,99.90
2019-04-20T00:05:43.418Z,99.90
2019-04-20T00:10:00.442Z,99.90
2019-04-20T00:14:09.026Z,99.90
2019-04-20T00:18:13.501Z,99.90
2019-04-20T00:22:41.029Z,99.90
2019-04-20T00:27:08.585Z,99.90
2019-04-20T00:31:13.776Z,99.90
2019-04-20T00:35:06.375Z,99.90
2019-04-20T00:39:17.216Z,99.90
2019-04-20T00:43:30.355Z,99.90
2019-04-20T00:47:47.852Z,99.90
2019-04-20T00:52:13.040Z,99.90
2019-04-20T00:55:57.101Z,99.90
2019-04-20T01:00:27.137Z,99.90
2019-04-20T01:04:37.754Z,99.90
2019-04-20T01:08:44.381Z,99.90
2019-04-20T01:13:01.159Z,99.90
2019-04-20T01:17:11.853Z,99.90
2019-04-20T01:21:19.490Z,99.90
2019-04-20T01:25:29.007Z,99.90
2019-04-20T01:29:42.321Z,99.90
2019-04-20T01:33:56.591Z,99.90
2019-04-20T01:38:12.559Z,99.90
2019-04-20T01:42:04.977Z,99.90
2019-04-20T01:46:18.762Z,99.90
2019-04-20T01:50:27.719Z,99.90
2019-04-20T01:54:56.389Z,99.90
2019-04-20T01:59:04.604Z,99.90
2019-04-20T02:03:14.964Z,99.90
2019-04-20T02:07:28.393Z,99.90
2019-04-20T02:11:38.216Z,99.90
2019-04-20T02:15:48.557Z,99.90
2019-04-20T02:20:14.339Z,99.90
2019-04-20T02:24:08.058Z,99.90
2019-04-20T02:28:34.279Z,99.90
2019-04-20T02:33:06.988Z,99.90
2019-04-20T02:41:36.206Z,99.90
2019-04-20T02:45:40.418Z,99.90
2019-04-20T02:49:52.473Z,99.90
2019-04-20T02:54:10.974Z,99.90
2019-04-20T02:58:07.841Z,99.90
2019-04-20T03:02:05.981Z,99.90
2019-04-20T03:06:16.543Z,99.90
2019-04-20T03:10:52.522Z,99.90
2019-04-20T03:14:56.173Z,99.90
2019-04-20T03:19:03.184Z,99.90
2019-04-20T03:27:29.477Z,99.90
2019-04-20T03:32:15.451Z,99.90
2019-04-20T03:36:12.098Z,99.90
2019-04-20T03:40:07.309Z,99.90
2019-04-20T03:44:06.462Z,99.90
2019-04-20T03:48:32.580Z,99.90
2019-04-20T03:52:54.261Z,99.90
2019-04-20T03:57:15.563Z,99.90
2019-04-20T04:01:55.575Z,99.90
2019-04-20T04:05:40.765Z,99.90
2019-04-20T04:09:46.710Z,99.90
2019-04-20T04:13:45.977Z,99.90
2019-04-20T04:17:57.973Z,99.90
2019-04-20T04:22:19.265Z,99.90
2019-04-20T04:26:30.096Z,99.90
2019-04-20T04:30:40.542Z,99.90
2019-04-20T04:34:54.192Z,99.90
2019-04-20T04:39:11.454Z,99.90
2019-04-20T04:43:17.022Z,99.90
2019-04-20T04:47:09.891Z,99.90
2019-04-20T04:51:23.988Z,99.90
2019-04-20T04:55:38.112Z,99.90
2019-04-20T04:59:38.469Z,99.90
2019-04-20T05:04:19.256Z,99.90
2019-04-20T05:08:05.776Z,99.90
2019-04-20T05:12:15.223Z,99.90
2019-04-20T05:16:40.087Z,99.90
2019-04-20T05:20:54.691Z,99.90
2019-04-20T05:25:03.405Z,99.90
2019-04-20T05:29:02.784Z,99.90
2019-04-20T05:33:08.275Z,99.90
2019-04-20T05:37:46.958Z,99.90
2019-04-20T05:41:41.921Z,99.90
2019-04-20T05:45:46.563Z,99.90
2019-04-20T05:49:57.277Z,99.90
2019-04-20T05:54:17.112Z,99.90
2019-04-20T05:58:26.193Z,99.90
2019-04-20T06:02:37.754Z,99.90
2019-04-20T06:06:44.376Z,99.90
2019-04-20T06:10:56.411Z,99.90
2019-04-20T06:15:08.361Z,99.90
2019-04-20T06:23:47.902Z,99.90
2019-04-20T06:27:52.985Z,99.90
2019-04-20T06:32:06.653Z,99.90
2019-04-20T06:36:21.938Z,99.90
2019-04-20T06:40:49.602Z,99.90
2019-04-20T06:44:41.319Z,99.90
2019-04-20T06:48:53.853Z,99.90
2019-04-20T06:53:27.959Z,99.90
2019-04-20T06:57:29.144Z,99.90
2019-04-20T07:01:46.752Z,99.90
2019-04-20T07:05:49.235Z,99.90
2019-04-20T07:13:55.614Z,99.90
2019-04-20T07:18:16.946Z,99.90
2019-04-20T07:22:55.910Z,99.90
2019-04-20T07:26:44.522Z,99.90
2019-04-20T07:30:51.914Z,99.90
2019-04-20T07:35:04.912Z,99.90
2019-04-20T07:39:15.843Z,99.90
2019-04-20T07:43:21.370Z,99.90
2019-04-20T08:49:13.167Z,99.90
2019-04-20T08:57:11.219Z,99.90
2019-04-20T09:01:24.224Z,99.90
2019-04-20T09:05:44.914Z,99.90
2019-04-20T09:10:00.802Z,99.90
2019-04-20T09:13:55.875Z,99.90
2019-04-20T09:18:09.313Z,99.90
2019-04-20T09:22:40.536Z,99.90
2019-04-20T09:26:58.762Z,99.90
2019-04-20T09:31:11.921Z,99.90
2019-04-20T09:35:20.966Z,99.90
2019-04-20T09:39:28.423Z,99.90
2019-04-20T09:43:30.352Z,99.90
2019-04-20T09:47:44.506Z,99.90
2019-04-20T09:52:03.851Z,99.90
2019-04-20T09:56:18.245Z,99.90
2019-04-20T10:00:25.632Z,99.90
2019-04-20T10:04:21.619Z,99.90
2019-04-20T10:08:33.993Z,99.90
2019-04-20T10:12:41.739Z,99.90
2019-04-20T10:16:51.735Z,99.90
2019-04-20T10:21:01.780Z,99.90
2019-04-20T10:25:10.863Z,99.90
2019-04-20T10:29:19.589Z,99.90
2019-04-20T10:33:28.314Z,99.90
2019-04-20T10:37:39.674Z,99.90
2019-04-20T10:41:53.529Z,99.90
2019-04-20T10:45:59.041Z,99.90
2019-04-20T10:50:09.319Z,99.90
2019-04-20T10:54:18.398Z,99.90
2019-04-20T10:58:27.458Z,99.90
2019-04-20T11:02:37.385Z,99.90
2019-04-20T11:06:46.927Z,99.90
2019-04-20T11:11:08.395Z,99.90
2019-04-20T11:15:06.207Z,99.70
2019-04-20T11:19:15.664Z,98.00
2019-04-20T11:23:24.503Z,97.60
2019-04-20T11:27:34.125Z,99.60
2019-04-20T11:31:48.840Z,99.50
2019-04-20T11:35:52.970Z,98.10
2019-04-20T11:40:01.503Z,97.20
2019-04-20T11:44:11.611Z,95.00
2019-04-20T11:48:21.323Z,95.70
2019-04-20T11:52:33.251Z,92.60
2019-04-20T11:56:43.528Z,92.90
2019-04-20T12:00:59.362Z,93.70
2019-04-20T12:05:12.775Z,92.60
2019-04-20T12:09:14.944Z,88.20
2019-04-20T12:13:24.838Z,88.50
2019-04-20T12:17:33.554Z,88.20
2019-04-20T12:21:42.239Z,79.20
2019-04-20T12:25:52.239Z,84.00
2019-04-20T12:30:01.847Z,80.20
2019-04-20T12:34:10.716Z,73.80
2019-04-20T12:38:19.238Z,71.70
2019-04-20T12:42:28.709Z,73.70
2019-04-20T12:46:38.204Z,74.80
2019-04-20T12:50:47.924Z,65.70
2019-04-20T12:54:58.324Z,65.20
2019-04-20T12:59:07.469Z,66.30
2019-04-20T13:03:17.264Z,66.20
2019-04-20T13:07:26.892Z,68.10
2019-04-20T13:11:56.992Z,70.50
2019-04-20T13:16:08.204Z,68.10
2019-04-20T13:20:18.286Z,71.20
2019-04-20T13:24:27.163Z,70.60
2019-04-20T13:28:37.047Z,66.20
2019-04-20T13:32:46.217Z,66.60
2019-04-20T13:36:55.720Z,65.60
2019-04-20T13:41:04.499Z,67.70
2019-04-20T13:45:17.112Z,69.70
2019-04-20T13:49:27.040Z,69.20
2019-04-20T13:53:37.049Z,67.50
2019-04-20T13:57:56.382Z,67.20
2019-04-20T14:02:08.878Z,65.40
2019-04-20T14:06:18.465Z,65.80
2019-04-20T14:10:27.419Z,69.20
2019-04-20T14:14:37.002Z,70.60
2019-04-20T14:18:47.002Z,75.40
2019-04-20T14:22:56.910Z,70.40
2019-04-20T14:27:06.566Z,70.00
2019-04-20T14:31:16.099Z,67.50
2019-04-20T14:35:25.004Z,69.90
2019-04-20T14:39:34.222Z,70.00
2019-04-20T14:43:42.907Z,74.70
2019-04-20T14:47:51.950Z,70.70
2019-04-20T14:52:01.530Z,74.10
2019-04-20T14:56:11.418Z,68.30
2019-04-20T15:00:27.846Z,72.70
2019-04-20T15:04:37.070Z,70.50
2019-04-20T15:08:45.654Z,72.80
2019-04-20T15:12:59.107Z,69.30
2019-04-20T15:17:04.739Z,73.20
2019-04-20T15:21:21.713Z,65.50
2019-04-20T15:25:31.592Z,64.40
2019-04-20T15:29:40.252Z,62.90
2019-04-20T15:33:48.911Z,69.10
2019-04-20T15:37:57.434Z,67.20
2019-04-20T15:42:07.325Z,64.20
2019-04-20T15:46:17.252Z,66.20
2019-04-20T15:50:26.068Z,66.70
2019-04-20T15:54:35.608Z,68.50
2019-04-20T15:58:44.294Z,65.60
2019-04-20T16:03:03.398Z,67.00
2019-04-20T16:07:13.043Z,72.00
2019-04-20T16:11:21.721Z,69.80
2019-04-20T16:15:31.638Z,67.60
2019-04-20T16:19:49.170Z,69.00
2019-04-20T16:23:52.589Z,72.70
2019-04-20T16:28:01.567Z,70.40
2019-04-20T16:32:10.126Z,70.30
2019-04-20T16:36:18.763Z,68.30
2019-04-20T16:40:27.423Z,73.70
2019-04-20T16:44:35.928Z,72.20
2019-04-20T16:48:44.423Z,70.80
2019-04-20T16:52:52.921Z,71.30
2019-04-20T16:57:02.597Z,70.60
2019-04-20T17:01:11.630Z,71.00
2019-04-20T17:05:21.030Z,73.60
2019-04-20T17:09:29.630Z,71.20
2019-04-20T17:13:43.864Z,73.90
2019-04-20T17:17:51.111Z,71.70
2019-04-20T17:21:59.154Z,72.70
2019-04-20T17:26:10.440Z,74.40
2019-04-20T17:30:25.490Z,75.50
2019-04-20T17:34:50.040Z,73.50
2019-04-20T17:38:52.028Z,75.60
2019-04-20T17:43:04.309Z,76.30
2019-04-20T17:47:25.866Z,75.90
2019-04-20T17:51:34.487Z,72.90
2019-04-20T17:55:37.726Z,74.00
2019-04-20T17:59:44.836Z,74.40
2019-04-20T18:04:23.243Z,74.20
2019-04-20T18:08:27.264Z,75.60
2019-04-20T18:12:23.204Z,78.40
2019-04-20T18:16:46.526Z,78.10
2019-04-20T18:20:54.790Z,80.10
2019-04-20T18:25:26.796Z,79.80
2019-04-20T18:29:39.796Z,79.80
2019-04-20T18:33:30.270Z,81.60
2019-04-20T18:37:36.834Z,80.00
2019-04-20T18:41:51.412Z,80.80
2019-04-20T18:46:14.854Z,82.90
2019-04-20T18:50:15.020Z,82.80
2019-04-20T18:54:22.142Z,83.60
2019-04-20T18:58:27.300Z,83.30
2019-04-20T19:02:40.946Z,83.10
2019-04-20T19:06:45.997Z,83.20
2019-04-20T19:11:03.226Z,84.70
2019-04-20T19:15:38.610Z,87.00
2019-04-20T19:19:34.234Z,83.60
2019-04-20T19:23:42.439Z,83.50
2019-04-20T19:27:50.853Z,84.40
2019-04-20T19:32:17.260Z,84.80
2019-04-20T19:36:19.791Z,82.60
2019-04-20T19:40:31.244Z,83.80
2019-04-20T19:44:47.731Z,84.00
2019-04-20T19:48:49.614Z,84.30
2019-04-20T19:53:20.010Z,86.00
2019-04-20T19:57:15.908Z,84.70
2019-04-20T20:01:09.361Z,84.60
2019-04-20T20:05:25.034Z,85.40
2019-04-20T20:09:32.422Z,85.70
2019-04-20T20:13:44.929Z,86.90
2019-04-20T20:18:13.546Z,86.10
2019-04-20T20:22:12.857Z,87.00
2019-04-20T20:26:19.691Z,86.60
2019-04-20T20:30:28.023Z,88.30
2019-04-20T20:34:36.362Z,89.30
2019-04-20T20:38:46.937Z,87.50
2019-04-20T20:43:06.178Z,87.60
2019-04-20T20:47:21.965Z,86.70
2019-04-20T20:51:34.490Z,88.80
2019-04-20T20:55:32.166Z,90.20
2019-04-20T20:59:42.925Z,89.50
2019-04-20T21:03:45.280Z,89.10
2019-04-20T21:07:53.318Z,89.70
2019-04-20T21:12:08.131Z,90.00
2019-04-20T21:16:19.755Z,90.20
2019-04-20T21:20:46.536Z,90.10
2019-04-20T21:24:48.455Z,90.10
2019-04-20T21:28:57.584Z,90.60
2019-04-20T21:33:07.900Z,87.70
2019-04-20T21:37:20.059Z,90.60
2019-04-20T21:41:27.885Z,90.70
2019-04-20T21:45:38.037Z,89.10
2019-04-20T21:49:57.957Z,90.40
2019-04-20T21:53:59.598Z,86.50
2019-04-20T21:58:09.093Z,90.40
2019-04-20T22:02:45.981Z,90.60
2019-04-20T22:06:47.878Z,88.20
2019-04-20T22:10:57.667Z,91.10
2019-04-20T22:15:17.024Z,91.20
2019-04-20T22:19:31.602Z,90.10
2019-04-20T22:23:46.628Z,90.80
2019-04-20T22:27:38.874Z,89.10
2019-04-20T22:31:53.457Z,90.30
2019-04-20T22:36:02.163Z,89.20
2019-04-20T22:40:11.849Z,88.30
2019-04-20T22:44:22.698Z,91.10
2019-04-20T22:48:29.662Z,90.30
2019-04-20T22:52:48.645Z,90.10
2019-04-20T22:57:01.048Z,85.60
2019-04-20T23:01:03.951Z,88.10
2019-04-20T23:05:09.064Z,90.30
2019-04-20T23:09:18.786Z,90.30
2019-04-20T23:13:34.358Z,88.60
2019-04-20T23:17:43.078Z,88.90
2019-04-20T23:21:55.739Z,87.40
2019-04-20T23:25:58.893Z,90.50
2019-04-20T23:30:12.602Z,89.80
2019-04-20T23:34:21.872Z,91.20
2019-04-20T23:38:28.811Z,90.80
2019-04-20T23:42:55.809Z,90.50
2019-04-20T23:47:11.536Z,90.00
2019-04-20T23:51:38.564Z,90.80
2019-04-20T23:55:27.758Z,89.70
2019-04-20T23:59:41.164Z,90.60
